sensor_id;sensor_type;location;lat;lon;timestamp;temperature;humidity
66128;DHT22;52925;52.436;-1.952;2023-04-03T00:01:18;10.60;81.20
66128;DHT22;52925;52.436;-1.952;2023-04-03T00:02:39;10.60;81.10
66128;DHT22;52925;52.436;-1.952;2023-04-03T00:03:59;10.60;81.40
66128;DHT22;52925;52.436;-1.952;2023-04-03T00:05:22;10.50;81.40
66128;DHT22;52925;52.436;-1.952;2023-04-03T00:06:42;10.50;81.30
66128;DHT22;52925;52.436;-1.952;2023-04-03T00:08:03;10.50;81.50
66128;DHT22;52925;52.436;-1.952;2023-04-03T00:09:23;10.50;81.20
66128;DHT22;52925;52.436;-1.952;2023-04-03T00:10:44;10.50;81.10
66128;DHT22;52925;52.436;-1.952;2023-04-03T00:12:04;10.50;81.30
66128;DHT22;52925;52.436;-1.952;2023-04-03T00:13:26;10.50;81.50
66128;DHT22;52925;52.436;-1.952;2023-04-03T00:14:47;10.50;81.10
66128;DHT22;52925;52.436;-1.952;2023-04-03T00:16:07;10.50;81.50
66128;DHT22;52925;52.436;-1.952;2023-04-03T00:17:29;10.50;81.40
66128;DHT22;52925;52.436;-1.952;2023-04-03T00:18:50;10.50;81.20
66128;DHT22;52925;52.436;-1.952;2023-04-03T00:20:11;10.50;81.00
66128;DHT22;52925;52.436;-1.952;2023-04-03T00:21:33;10.50;81.20
66128;DHT22;52925;52.436;-1.952;2023-04-03T00:22:53;10.50;81.10
66128;DHT22;52925;52.436;-1.952;2023-04-03T00:24:14;10.40;80.90
66128;DHT22;52925;52.436;-1.952;2023-04-03T00:25:34;10.50;81.20
66128;DHT22;52925;52.436;-1.952;2023-04-03T00:26:55;10.50;81.10
66128;DHT22;52925;52.436;-1.952;2023-04-03T00:28:15;10.50;81.10
66128;DHT22;52925;52.436;-1.952;2023-04-03T00:29:36;10.40;81.20
66128;DHT22;52925;52.436;-1.952;2023-04-03T00:30:56;10.50;81.00
66128;DHT22;52925;52.436;-1.952;2023-04-03T00:32:18;10.50;81.20
66128;DHT22;52925;52.436;-1.952;2023-04-03T05:31:13;8.70;81.50
66128;DHT22;52925;52.436;-1.952;2023-04-03T05:32:35;8.70;82.10
66128;DHT22;52925;52.436;-1.952;2023-04-03T05:34:07;8.70;82.00
66128;DHT22;52925;52.436;-1.952;2023-04-03T05:35:30;8.70;82.00
66128;DHT22;52925;52.436;-1.952;2023-04-03T05:36:52;8.70;82.10
66128;DHT22;52925;52.436;-1.952;2023-04-03T05:38:14;8.70;81.90
66128;DHT22;52925;52.436;-1.952;2023-04-03T05:39:34;8.70;81.90
66128;DHT22;52925;52.436;-1.952;2023-04-03T05:40:56;8.70;81.80
66128;DHT22;52925;52.436;-1.952;2023-04-03T05:42:17;8.70;81.90
66128;DHT22;52925;52.436;-1.952;2023-04-03T05:43:39;8.70;81.80
66128;DHT22;52925;52.436;-1.952;2023-04-03T05:45:02;8.70;81.80
66128;DHT22;52925;52.436;-1.952;2023-04-03T05:46:25;8.70;82.00
66128;DHT22;52925;52.436;-1.952;2023-04-03T05:47:49;8.70;81.80
66128;DHT22;52925;52.436;-1.952;2023-04-03T05:49:10;8.70;81.80
66128;DHT22;52925;52.436;-1.952;2023-04-03T05:50:31;8.70;81.80
66128;DHT22;52925;52.436;-1.952;2023-04-03T05:51:53;8.70;81.80
66128;DHT22;52925;52.436;-1.952;2023-04-03T05:53:22;8.70;82.00
66128;DHT22;52925;52.436;-1.952;2023-04-03T05:54:45;8.70;81.80
66128;DHT22;52925;52.436;-1.952;2023-04-03T05:56:12;8.70;81.90
66128;DHT22;52925;52.436;-1.952;2023-04-03T05:57:34;8.70;81.90
66128;DHT22;52925;52.436;-1.952;2023-04-03T05:58:55;8.70;81.90
66128;DHT22;52925;52.436;-1.952;2023-04-03T06:00:17;8.70;81.90
66128;DHT22;52925;52.436;-1.952;2023-04-03T06:01:48;8.70;81.90
66128;DHT22;52925;52.436;-1.952;2023-04-03T06:03:09;8.70;81.80
66128;DHT22;52925;52.436;-1.952;2023-04-03T06:04:30;8.70;81.80
66128;DHT22;52925;52.436;-1.952;2023-04-03T06:05:52;8.70;81.80
66128;DHT22;52925;52.436;-1.952;2023-04-03T06:07:15;8.70;81.90
66128;DHT22;52925;52.436;-1.952;2023-04-03T06:08:36;8.70;82.00
66128;DHT22;52925;52.436;-1.952;2023-04-03T06:09:57;8.70;82.00
66128;DHT22;52925;52.436;-1.952;2023-04-03T06:11:19;8.70;82.00
66128;DHT22;52925;52.436;-1.952;2023-04-03T06:12:42;8.60;81.90
66128;DHT22;52925;52.436;-1.952;2023-04-03T06:14:03;8.70;82.10
66128;DHT22;52925;52.436;-1.952;2023-04-03T06:15:23;8.70;82.10
66128;DHT22;52925;52.436;-1.952;2023-04-03T06:16:45;8.70;82.00
66128;DHT22;52925;52.436;-1.952;2023-04-03T06:18:07;8.70;81.90
66128;DHT22;52925;52.436;-1.952;2023-04-03T06:19:29;8.70;81.90
66128;DHT22;52925;52.436;-1.952;2023-04-03T06:20:51;8.70;82.00
66128;DHT22;52925;52.436;-1.952;2023-04-03T06:22:12;8.70;82.10
66128;DHT22;52925;52.436;-1.952;2023-04-03T06:23:34;8.70;82.00
66128;DHT22;52925;52.436;-1.952;2023-04-03T06:24:55;8.70;82.00
66128;DHT22;52925;52.436;-1.952;2023-04-03T06:26:16;8.70;82.00
66128;DHT22;52925;52.436;-1.952;2023-04-03T06:27:37;8.70;82.40
66128;DHT22;52925;52.436;-1.952;2023-04-03T06:28:58;8.70;82.20
66128;DHT22;52925;52.436;-1.952;2023-04-03T06:30:19;8.70;82.20
66128;DHT22;52925;52.436;-1.952;2023-04-03T06:31:40;8.70;82.30
66128;DHT22;52925;52.436;-1.952;2023-04-03T06:33:01;8.70;82.30
66128;DHT22;52925;52.436;-1.952;2023-04-03T06:34:23;8.70;82.20
66128;DHT22;52925;52.436;-1.952;2023-04-03T06:35:45;8.70;82.40
66128;DHT22;52925;52.436;-1.952;2023-04-03T06:37:06;8.60;82.20
66128;DHT22;52925;52.436;-1.952;2023-04-03T06:38:27;8.70;82.40
66128;DHT22;52925;52.436;-1.952;2023-04-03T06:39:48;8.60;82.40
66128;DHT22;52925;52.436;-1.952;2023-04-03T06:41:09;8.70;82.50
66128;DHT22;52925;52.436;-1.952;2023-04-03T06:42:30;8.60;82.50
66128;DHT22;52925;52.436;-1.952;2023-04-03T06:44:01;8.70;82.60
66128;DHT22;52925;52.436;-1.952;2023-04-03T06:45:22;8.60;82.60
66128;DHT22;52925;52.436;-1.952;2023-04-03T06:46:45;8.60;82.70
66128;DHT22;52925;52.436;-1.952;2023-04-03T06:48:06;8.70;82.60
66128;DHT22;52925;52.436;-1.952;2023-04-03T06:49:29;8.70;82.60
66128;DHT22;52925;52.436;-1.952;2023-04-03T17:46:12;13.30;78.00
66128;DHT22;52925;52.436;-1.952;2023-04-03T17:47:35;13.40;78.00
66128;DHT22;52925;52.436;-1.952;2023-04-03T17:48:56;13.40;77.80
66128;DHT22;52925;52.436;-1.952;2023-04-03T17:50:19;13.40;77.80
66128;DHT22;52925;52.436;-1.952;2023-04-03T17:51:40;13.40;78.00
66128;DHT22;52925;52.436;-1.952;2023-04-03T17:53:01;13.40;77.70
66128;DHT22;52925;52.436;-1.952;2023-04-03T17:54:22;13.50;77.00
66128;DHT22;52925;52.436;-1.952;2023-04-03T17:55:43;13.50;77.50
66128;DHT22;52925;52.436;-1.952;2023-04-03T17:57:04;13.50;77.30
66128;DHT22;52925;52.436;-1.952;2023-04-03T17:58:26;13.50;77.40
66128;DHT22;52925;52.436;-1.952;2023-04-03T17:59:47;13.50;77.70
66128;DHT22;52925;52.436;-1.952;2023-04-03T18:01:11;13.50;77.80
66128;DHT22;52925;52.436;-1.952;2023-04-03T18:02:32;13.60;77.40
66128;DHT22;52925;52.436;-1.952;2023-04-03T18:03:55;13.50;77.80
66128;DHT22;52925;52.436;-1.952;2023-04-03T18:05:16;13.50;77.60
66128;DHT22;52925;52.436;-1.952;2023-04-03T18:06:40;13.60;77.80
66128;DHT22;52925;52.436;-1.952;2023-04-03T18:08:02;13.60;77.10
66128;DHT22;52925;52.436;-1.952;2023-04-03T18:09:26;13.50;77.40
66128;DHT22;52925;52.436;-1.952;2023-04-03T18:10:48;13.50;77.30
66128;DHT22;52925;52.436;-1.952;2023-04-03T18:12:09;13.50;77.00
66128;DHT22;52925;52.436;-1.952;2023-04-03T18:13:30;13.50;77.10
66128;DHT22;52925;52.436;-1.952;2023-04-03T18:14:51;13.50;76.60
66128;DHT22;52925;52.436;-1.952;2023-04-03T18:16:14;13.50;76.60
66128;DHT22;52925;52.436;-1.952;2023-04-03T18:17:34;13.50;76.90
66128;DHT22;52925;52.436;-1.952;2023-04-03T18:18:55;13.50;77.10
66128;DHT22;52925;52.436;-1.952;2023-04-03T18:20:17;13.50;77.50
66128;DHT22;52925;52.436;-1.952;2023-04-03T18:21:38;13.50;77.30
66128;DHT22;52925;52.436;-1.952;2023-04-03T18:23:01;13.40;77.00
66128;DHT22;52925;52.436;-1.952;2023-04-03T18:24:23;13.40;77.20
66128;DHT22;52925;52.436;-1.952;2023-04-03T18:25:45;13.50;77.40
66128;DHT22;52925;52.436;-1.952;2023-04-03T18:27:10;13.40;77.40
66128;DHT22;52925;52.436;-1.952;2023-04-03T18:28:31;13.40;77.60
66128;DHT22;52925;52.436;-1.952;2023-04-03T18:29:54;13.30;77.60
66128;DHT22;52925;52.436;-1.952;2023-04-03T18:31:17;13.30;77.20
66128;DHT22;52925;52.436;-1.952;2023-04-03T18:32:39;13.30;77.40
66128;DHT22;52925;52.436;-1.952;2023-04-03T18:34:01;13.30;77.50
66128;DHT22;52925;52.436;-1.952;2023-04-03T18:35:22;13.30;76.70
66128;DHT22;52925;52.436;-1.952;2023-04-03T18:36:43;13.30;77.20
66128;DHT22;52925;52.436;-1.952;2023-04-03T18:38:04;13.30;77.60
66128;DHT22;52925;52.436;-1.952;2023-04-03T18:39:26;13.20;77.40
66128;DHT22;52925;52.436;-1.952;2023-04-03T18:40:47;13.20;77.60
66128;DHT22;52925;52.436;-1.952;2023-04-03T18:42:11;13.10;77.60
66128;DHT22;52925;52.436;-1.952;2023-04-03T18:43:33;13.10;77.30
66128;DHT22;52925;52.436;-1.952;2023-04-03T18:44:57;13.10;78.00
66128;DHT22;52925;52.436;-1.952;2023-04-03T18:46:20;13.10;77.80
66128;DHT22;52925;52.436;-1.952;2023-04-03T18:47:40;13.00;77.80
66128;DHT22;52925;52.436;-1.952;2023-04-03T18:49:02;12.90;77.80
66128;DHT22;52925;52.436;-1.952;2023-04-03T18:50:23;12.90;77.50
66128;DHT22;52925;52.436;-1.952;2023-04-03T18:51:45;12.90;77.80
66128;DHT22;52925;52.436;-1.952;2023-04-03T18:53:06;12.90;77.80
66128;DHT22;52925;52.436;-1.952;2023-04-03T18:54:27;12.90;78.00
66128;DHT22;52925;52.436;-1.952;2023-04-03T18:55:48;12.90;78.20
66128;DHT22;52925;52.436;-1.952;2023-04-03T18:57:09;12.80;78.20
66128;DHT22;52925;52.436;-1.952;2023-04-03T18:58:30;12.80;77.90
66128;DHT22;52925;52.436;-1.952;2023-04-03T18:59:51;12.70;78.30
66128;DHT22;52925;52.436;-1.952;2023-04-03T19:01:12;12.70;79.10
66128;DHT22;52925;52.436;-1.952;2023-04-03T19:02:35;12.70;78.20
66128;DHT22;52925;52.436;-1.952;2023-04-03T19:03:56;12.70;77.80
66128;DHT22;52925;52.436;-1.952;2023-04-03T19:05:17;12.60;77.60
66128;DHT22;52925;52.436;-1.952;2023-04-03T19:06:39;12.60;78.10
66128;DHT22;52925;52.436;-1.952;2023-04-03T19:08:01;12.50;78.30
66128;DHT22;52925;52.436;-1.952;2023-04-03T19:09:21;12.60;78.00
66128;DHT22;52925;52.436;-1.952;2023-04-03T19:10:44;12.60;78.20
66128;DHT22;52925;52.436;-1.952;2023-04-03T19:12:06;12.50;78.50
66128;DHT22;52925;52.436;-1.952;2023-04-03T19:13:27;12.50;78.60
66128;DHT22;52925;52.436;-1.952;2023-04-03T19:14:48;12.50;78.50
66128;DHT22;52925;52.436;-1.952;2023-04-03T19:16:09;12.40;78.70
66128;DHT22;52925;52.436;-1.952;2023-04-03T19:17:30;12.40;78.50
66128;DHT22;52925;52.436;-1.952;2023-04-03T19:18:53;12.40;78.70
66128;DHT22;52925;52.436;-1.952;2023-04-03T19:20:14;12.40;78.80
66128;DHT22;52925;52.436;-1.952;2023-04-03T19:21:34;12.30;79.00
66128;DHT22;52925;52.436;-1.952;2023-04-03T19:22:59;12.30;79.10
66128;DHT22;52925;52.436;-1.952;2023-04-03T19:24:20;12.30;79.40
66128;DHT22;52925;52.436;-1.952;2023-04-03T19:25:41;12.30;79.50
66128;DHT22;52925;52.436;-1.952;2023-04-03T19:27:02;12.20;79.80
66128;DHT22;52925;52.436;-1.952;2023-04-03T19:28:24;12.20;79.50
66128;DHT22;52925;52.436;-1.952;2023-04-03T19:29:46;12.20;79.80
66128;DHT22;52925;52.436;-1.952;2023-04-03T19:31:10;12.20;79.70
66128;DHT22;52925;52.436;-1.952;2023-04-03T19:32:32;12.20;79.40
66128;DHT22;52925;52.436;-1.952;2023-04-03T19:33:54;12.20;79.90
66128;DHT22;52925;52.436;-1.952;2023-04-03T19:35:14;12.10;79.90
66128;DHT22;52925;52.436;-1.952;2023-04-03T19:36:35;12.10;80.10
66128;DHT22;52925;52.436;-1.952;2023-04-03T19:37:57;12.10;80.30
66128;DHT22;52925;52.436;-1.952;2023-04-03T19:39:17;12.10;80.10
66128;DHT22;52925;52.436;-1.952;2023-04-03T19:40:38;12.10;80.20
66128;DHT22;52925;52.436;-1.952;2023-04-03T19:44:23;12.10;80.40
66128;DHT22;52925;52.436;-1.952;2023-04-03T19:45:45;12.10;80.40
66128;DHT22;52925;52.436;-1.952;2023-04-03T19:47:06;12.10;80.60
66128;DHT22;52925;52.436;-1.952;2023-04-03T19:48:28;12.10;80.60
66128;DHT22;52925;52.436;-1.952;2023-04-03T19:49:51;12.00;81.00
66128;DHT22;52925;52.436;-1.952;2023-04-03T19:51:12;12.00;80.90
66128;DHT22;52925;52.436;-1.952;2023-04-03T19:52:33;12.00;81.10
66128;DHT22;52925;52.436;-1.952;2023-04-03T19:53:53;12.00;81.10
66128;DHT22;52925;52.436;-1.952;2023-04-03T19:55:14;11.90;80.90
66128;DHT22;52925;52.436;-1.952;2023-04-03T19:56:35;12.00;80.80
66128;DHT22;52925;52.436;-1.952;2023-04-03T19:57:57;12.00;80.10
66128;DHT22;52925;52.436;-1.952;2023-04-03T19:59:18;12.10;80.40
66128;DHT22;52925;52.436;-1.952;2023-04-03T20:00:40;12.10;79.90
66128;DHT22;52925;52.436;-1.952;2023-04-03T20:02:01;12.10;79.80
66128;DHT22;52925;52.436;-1.952;2023-04-03T20:03:22;12.10;79.60
66128;DHT22;52925;52.436;-1.952;2023-04-03T20:04:43;12.10;80.00
66128;DHT22;52925;52.436;-1.952;2023-04-03T20:06:05;12.10;79.70
66128;DHT22;52925;52.436;-1.952;2023-04-03T20:07:26;12.10;79.90
66128;DHT22;52925;52.436;-1.952;2023-04-03T20:08:47;12.10;79.60
66128;DHT22;52925;52.436;-1.952;2023-04-03T20:10:09;12.10;79.70
66128;DHT22;52925;52.436;-1.952;2023-04-03T20:11:33;12.10;79.70
66128;DHT22;52925;52.436;-1.952;2023-04-03T20:12:54;12.10;80.00
66128;DHT22;52925;52.436;-1.952;2023-04-03T20:14:15;12.10;79.60
66128;DHT22;52925;52.436;-1.952;2023-04-03T20:15:37;12.10;79.50
66128;DHT22;52925;52.436;-1.952;2023-04-03T20:16:59;12.10;79.80
66128;DHT22;52925;52.436;-1.952;2023-04-03T20:18:20;12.10;79.50
66128;DHT22;52925;52.436;-1.952;2023-04-03T20:19:41;12.00;79.60
66128;DHT22;52925;52.436;-1.952;2023-04-03T20:21:05;12.00;79.80
66128;DHT22;52925;52.436;-1.952;2023-04-03T20:22:26;12.00;79.70
66128;DHT22;52925;52.436;-1.952;2023-04-03T20:23:47;12.00;80.20
66128;DHT22;52925;52.436;-1.952;2023-04-03T20:25:11;12.00;79.60
66128;DHT22;52925;52.436;-1.952;2023-04-03T20:26:34;12.00;79.50
66128;DHT22;52925;52.436;-1.952;2023-04-03T20:27:57;12.00;79.60
66128;DHT22;52925;52.436;-1.952;2023-04-03T20:29:17;12.00;79.60
66128;DHT22;52925;52.436;-1.952;2023-04-03T20:30:39;12.00;79.70
66128;DHT22;52925;52.436;-1.952;2023-04-03T20:31:59;11.90;79.30
66128;DHT22;52925;52.436;-1.952;2023-04-03T20:33:21;12.00;79.30
66128;DHT22;52925;52.436;-1.952;2023-04-03T20:34:41;11.90;79.20
66128;DHT22;52925;52.436;-1.952;2023-04-03T20:36:04;11.90;79.50
66128;DHT22;52925;52.436;-1.952;2023-04-03T20:37:26;11.90;79.40
66128;DHT22;52925;52.436;-1.952;2023-04-03T20:38:47;11.90;79.50
66128;DHT22;52925;52.436;-1.952;2023-04-03T20:40:11;11.90;79.50
66128;DHT22;52925;52.436;-1.952;2023-04-03T20:41:32;11.90;79.50
66128;DHT22;52925;52.436;-1.952;2023-04-03T20:42:54;11.90;79.40
66128;DHT22;52925;52.436;-1.952;2023-04-03T20:44:15;11.80;79.40
66128;DHT22;52925;52.436;-1.952;2023-04-03T20:45:38;11.90;79.20
66128;DHT22;52925;52.436;-1.952;2023-04-03T20:46:58;11.80;79.40
66128;DHT22;52925;52.436;-1.952;2023-04-03T20:48:19;11.80;79.40
66128;DHT22;52925;52.436;-1.952;2023-04-03T20:49:39;11.80;79.60
66128;DHT22;52925;52.436;-1.952;2023-04-03T20:51:09;11.80;79.50
66128;DHT22;52925;52.436;-1.952;2023-04-03T20:52:30;11.70;79.30
66128;DHT22;52925;52.436;-1.952;2023-04-03T20:53:52;11.70;79.20
66128;DHT22;52925;52.436;-1.952;2023-04-03T20:55:13;11.70;79.30
66128;DHT22;52925;52.436;-1.952;2023-04-03T20:56:34;11.80;79.50
66128;DHT22;52925;52.436;-1.952;2023-04-03T20:57:55;11.70;79.30
66128;DHT22;52925;52.436;-1.952;2023-04-03T20:59:19;11.70;79.30
66128;DHT22;52925;52.436;-1.952;2023-04-03T21:00:40;11.70;79.40
66128;DHT22;52925;52.436;-1.952;2023-04-03T21:02:00;11.70;79.40
66128;DHT22;52925;52.436;-1.952;2023-04-03T21:03:22;11.70;79.40
66128;DHT22;52925;52.436;-1.952;2023-04-03T21:04:46;11.70;79.20
66128;DHT22;52925;52.436;-1.952;2023-04-03T21:20:20;11.60;79.20
66128;DHT22;52925;52.436;-1.952;2023-04-03T21:21:41;11.60;79.30
66128;DHT22;52925;52.436;-1.952;2023-04-03T21:23:04;11.70;79.20
66128;DHT22;52925;52.436;-1.952;2023-04-03T21:24:26;11.60;79.00
66128;DHT22;52925;52.436;-1.952;2023-04-03T21:25:47;11.60;79.00
66128;DHT22;52925;52.436;-1.952;2023-04-03T21:27:07;11.60;79.10
66128;DHT22;52925;52.436;-1.952;2023-04-03T21:28:28;11.60;79.00
66128;DHT22;52925;52.436;-1.952;2023-04-03T21:29:48;11.60;79.20
66128;DHT22;52925;52.436;-1.952;2023-04-03T21:31:10;11.60;79.00
66128;DHT22;52925;52.436;-1.952;2023-04-03T21:32:30;11.60;79.20
66128;DHT22;52925;52.436;-1.952;2023-04-03T21:33:51;11.60;79.10
66128;DHT22;52925;52.436;-1.952;2023-04-03T21:35:12;11.60;79.10
66128;DHT22;52925;52.436;-1.952;2023-04-03T21:36:38;11.60;79.10
66128;DHT22;52925;52.436;-1.952;2023-04-03T21:37:59;11.50;79.20
66128;DHT22;52925;52.436;-1.952;2023-04-03T21:39:20;11.50;79.00
66128;DHT22;52925;52.436;-1.952;2023-04-03T21:40:41;11.60;79.10
66128;DHT22;52925;52.436;-1.952;2023-04-03T21:42:04;11.60;79.00
66128;DHT22;52925;52.436;-1.952;2023-04-03T21:43:26;11.50;79.10
66128;DHT22;52925;52.436;-1.952;2023-04-03T21:44:46;11.50;79.20
66128;DHT22;52925;52.436;-1.952;2023-04-03T21:46:07;11.50;79.20
66128;DHT22;52925;52.436;-1.952;2023-04-03T21:47:27;11.50;79.20
66128;DHT22;52925;52.436;-1.952;2023-04-03T21:48:48;11.50;79.30
66128;DHT22;52925;52.436;-1.952;2023-04-03T21:50:09;11.40;79.30
66128;DHT22;52925;52.436;-1.952;2023-04-03T21:51:32;11.50;79.20
66128;DHT22;52925;52.436;-1.952;2023-04-03T21:52:53;11.50;79.00
66128;DHT22;52925;52.436;-1.952;2023-04-03T21:54:15;11.50;79.00
66128;DHT22;52925;52.436;-1.952;2023-04-03T21:55:35;11.50;79.10
66128;DHT22;52925;52.436;-1.952;2023-04-03T21:56:56;11.50;79.10
66128;DHT22;52925;52.436;-1.952;2023-04-03T21:58:16;11.50;79.00
66128;DHT22;52925;52.436;-1.952;2023-04-03T21:59:36;11.40;79.00
66128;DHT22;52925;52.436;-1.952;2023-04-03T22:01:06;11.50;79.20
66128;DHT22;52925;52.436;-1.952;2023-04-03T22:02:26;11.40;78.90
66128;DHT22;52925;52.436;-1.952;2023-04-03T22:03:48;11.40;79.20
66128;DHT22;52925;52.436;-1.952;2023-04-03T22:05:08;11.40;79.20
66128;DHT22;52925;52.436;-1.952;2023-04-03T22:06:28;11.40;79.10
66128;DHT22;52925;52.436;-1.952;2023-04-03T22:07:51;11.40;79.20
66128;DHT22;52925;52.436;-1.952;2023-04-03T22:09:12;11.40;79.10
66128;DHT22;52925;52.436;-1.952;2023-04-03T22:10:33;11.40;79.10
66128;DHT22;52925;52.436;-1.952;2023-04-03T22:11:52;11.40;78.80
66128;DHT22;52925;52.436;-1.952;2023-04-03T22:13:14;11.40;79.10
66128;DHT22;52925;52.436;-1.952;2023-04-03T22:14:34;11.40;79.00
66128;DHT22;52925;52.436;-1.952;2023-04-03T22:15:55;11.40;79.00
66128;DHT22;52925;52.436;-1.952;2023-04-03T22:17:15;11.40;79.10
66128;DHT22;52925;52.436;-1.952;2023-04-03T22:18:36;11.40;79.00
66128;DHT22;52925;52.436;-1.952;2023-04-03T22:19:57;11.40;79.00
66128;DHT22;52925;52.436;-1.952;2023-04-03T22:21:16;11.40;79.00
66128;DHT22;52925;52.436;-1.952;2023-04-03T22:22:38;11.40;79.60
66128;DHT22;52925;52.436;-1.952;2023-04-03T22:24:00;11.40;79.00
66128;DHT22;52925;52.436;-1.952;2023-04-03T22:25:21;11.40;79.00
66128;DHT22;52925;52.436;-1.952;2023-04-03T22:26:41;11.30;79.00
66128;DHT22;52925;52.436;-1.952;2023-04-03T22:28:02;11.40;78.80
66128;DHT22;52925;52.436;-1.952;2023-04-03T22:29:22;11.30;78.90
66128;DHT22;52925;52.436;-1.952;2023-04-03T22:30:43;11.40;79.00
66128;DHT22;52925;52.436;-1.952;2023-04-03T22:32:03;11.30;78.70
66128;DHT22;52925;52.436;-1.952;2023-04-03T22:33:24;11.30;78.90
66128;DHT22;52925;52.436;-1.952;2023-04-03T22:34:45;11.30;78.90
66128;DHT22;52925;52.436;-1.952;2023-04-03T22:36:08;11.30;78.80
66128;DHT22;52925;52.436;-1.952;2023-04-03T22:37:29;11.30;78.80
66128;DHT22;52925;52.436;-1.952;2023-04-03T22:38:49;11.30;78.70
66128;DHT22;52925;52.436;-1.952;2023-04-03T22:40:12;11.30;78.90
66128;DHT22;52925;52.436;-1.952;2023-04-03T22:41:32;11.30;78.70
66128;DHT22;52925;52.436;-1.952;2023-04-03T22:42:53;11.30;78.70
66128;DHT22;52925;52.436;-1.952;2023-04-03T22:44:13;11.30;78.30
66128;DHT22;52925;52.436;-1.952;2023-04-03T22:45:36;11.20;78.60
66128;DHT22;52925;52.436;-1.952;2023-04-03T22:47:04;11.20;78.70
66128;DHT22;52925;52.436;-1.952;2023-04-03T22:48:25;11.30;78.80
66128;DHT22;52925;52.436;-1.952;2023-04-03T22:49:46;11.20;78.90
66128;DHT22;52925;52.436;-1.952;2023-04-03T22:51:07;11.20;78.90
66128;DHT22;52925;52.436;-1.952;2023-04-03T22:52:28;11.20;79.00
66128;DHT22;52925;52.436;-1.952;2023-04-03T22:53:48;11.20;79.20
66128;DHT22;52925;52.436;-1.952;2023-04-03T22:55:09;11.20;78.90
66128;DHT22;52925;52.436;-1.952;2023-04-03T22:56:33;11.20;78.70
66128;DHT22;52925;52.436;-1.952;2023-04-03T22:57:54;11.20;78.60
66128;DHT22;52925;52.436;-1.952;2023-04-03T22:59:15;11.20;78.80
66128;DHT22;52925;52.436;-1.952;2023-04-03T23:00:36;11.20;79.00
66128;DHT22;52925;52.436;-1.952;2023-04-03T23:01:55;11.20;79.00
66128;DHT22;52925;52.436;-1.952;2023-04-03T23:03:16;11.20;78.70
66128;DHT22;52925;52.436;-1.952;2023-04-03T23:04:37;11.20;78.80
66128;DHT22;52925;52.436;-1.952;2023-04-03T23:05:59;11.20;78.90
66128;DHT22;52925;52.436;-1.952;2023-04-03T23:07:19;11.20;78.90
66128;DHT22;52925;52.436;-1.952;2023-04-03T23:08:41;11.10;78.70
66128;DHT22;52925;52.436;-1.952;2023-04-03T23:10:02;11.10;78.70
66128;DHT22;52925;52.436;-1.952;2023-04-03T23:11:22;11.20;78.70
66128;DHT22;52925;52.436;-1.952;2023-04-03T23:12:44;11.10;78.40
66128;DHT22;52925;52.436;-1.952;2023-04-03T23:14:03;11.20;78.60
66128;DHT22;52925;52.436;-1.952;2023-04-03T23:15:24;11.10;78.60
66128;DHT22;52925;52.436;-1.952;2023-04-03T23:16:45;11.10;78.60
66128;DHT22;52925;52.436;-1.952;2023-04-03T23:18:05;11.10;78.60
66128;DHT22;52925;52.436;-1.952;2023-04-03T23:19:26;11.10;78.70
66128;DHT22;52925;52.436;-1.952;2023-04-03T23:20:46;11.10;78.60
66128;DHT22;52925;52.436;-1.952;2023-04-03T23:22:10;11.10;78.60
66128;DHT22;52925;52.436;-1.952;2023-04-03T23:23:33;11.10;78.50
66128;DHT22;52925;52.436;-1.952;2023-04-03T23:24:54;11.10;78.40
66128;DHT22;52925;52.436;-1.952;2023-04-03T23:26:13;11.00;78.50
66128;DHT22;52925;52.436;-1.952;2023-04-03T23:27:34;11.10;78.60
66128;DHT22;52925;52.436;-1.952;2023-04-03T23:28:56;11.00;78.40
66128;DHT22;52925;52.436;-1.952;2023-04-03T23:30:17;11.00;78.50
66128;DHT22;52925;52.436;-1.952;2023-04-03T23:31:37;11.00;78.50
66128;DHT22;52925;52.436;-1.952;2023-04-03T23:32:57;11.00;78.30
66128;DHT22;52925;52.436;-1.952;2023-04-03T23:34:17;11.00;78.60
66128;DHT22;52925;52.436;-1.952;2023-04-03T23:35:41;11.00;78.20
66128;DHT22;52925;52.436;-1.952;2023-04-03T23:37:01;11.00;78.30
66128;DHT22;52925;52.436;-1.952;2023-04-03T23:38:22;11.00;78.30
66128;DHT22;52925;52.436;-1.952;2023-04-03T23:39:42;11.00;78.40
66128;DHT22;52925;52.436;-1.952;2023-04-03T23:41:03;11.00;78.30
66128;DHT22;52925;52.436;-1.952;2023-04-03T23:42:23;11.00;78.50
66128;DHT22;52925;52.436;-1.952;2023-04-03T23:43:44;10.90;78.40
66128;DHT22;52925;52.436;-1.952;2023-04-03T23:45:08;10.90;78.40
66128;DHT22;52925;52.436;-1.952;2023-04-03T23:46:29;10.90;78.60
66128;DHT22;52925;52.436;-1.952;2023-04-03T23:47:49;10.90;78.40
66128;DHT22;52925;52.436;-1.952;2023-04-03T23:49:10;10.90;78.30
66128;DHT22;52925;52.436;-1.952;2023-04-03T23:50:31;10.90;78.30
66128;DHT22;52925;52.436;-1.952;2023-04-03T23:51:51;10.90;78.60
66128;DHT22;52925;52.436;-1.952;2023-04-03T23:53:12;10.90;78.60
66128;DHT22;52925;52.436;-1.952;2023-04-03T23:54:33;10.90;78.40
66128;DHT22;52925;52.436;-1.952;2023-04-03T23:55:53;10.90;78.70
66128;DHT22;52925;52.436;-1.952;2023-04-03T23:57:14;10.80;78.40
66128;DHT22;52925;52.436;-1.952;2023-04-03T23:58:35;10.90;78.50
66128;DHT22;52925;52.436;-1.952;2023-04-03T23:59:55;10.80;78.40
